Time;durP1;ratioP1;P1;durP2;ratioP2;P2;SDS_P1;SDS_P2;PMS_P1;PMS_P2;Temp;Humidity;BMP_temperature;BMP_pressure;BME280_temperature;BME280_humidity;BME280_pressure;Samples;Min_cycle;Max_cycle;Signal;HPM_P1;HPM_P2
2022/05/15 00:02:07;;;;;;;4.00;1.83;;;;;;;23.49;61.45;98992.59;5135904;27;20169;-86
2022/05/15 00:04:33;;;;;;;4.73;1.70;;;;;;;23.53;61.03;98996.59;5136082;27;20171;-86
2022/05/15 00:06:58;;;;;;;3.30;1.80;;;;;;;23.51;60.96;98995.09;5135392;27;20251;-87
2022/05/15 00:09:24;;;;;;;3.67;1.90;;;;;;;23.42;61.41;98991.59;5135446;27;20252;-86
2022/05/15 00:11:50;;;;;;;3.23;1.80;;;;;;;23.44;61.27;98997.63;5135924;27;20242;-86
2022/05/15 00:14:16;;;;;;;4.27;1.83;;;;;;;23.36;62.06;98994.88;5135630;27;20641;-85
2022/05/15 00:16:42;;;;;;;3.73;1.93;;;;;;;23.32;62.51;98992.72;5117186;27;20175;-86
2022/05/15 00:19:09;;;;;;;4.43;2.23;;;;;;;23.29;62.89;98993.88;5135821;27;20179;-86
2022/05/15 00:21:36;;;;;;;3.07;1.83;;;;;;;23.27;62.80;98995.88;5135463;27;20171;-86
2022/05/15 00:24:01;;;;;;;3.43;2.03;;;;;;;23.30;62.95;98987.50;5135589;27;20171;-86
2022/05/15 00:26:27;;;;;;;4.90;1.53;;;;;;;23.27;62.55;98988.69;5135045;27;20218;-86
2022/05/15 00:28:52;;;;;;;4.30;1.63;;;;;;;23.09;63.59;98989.81;5135087;27;20627;-86
2022/05/15 00:31:19;;;;;;;4.10;2.13;;;;;;;23.00;64.37;99002.34;5135044;27;20240;-87
2022/05/15 00:33:45;;;;;;;2.60;1.70;;;;;;;22.97;64.20;99005.31;5134950;27;20214;-87
2022/05/15 00:36:11;;;;;;;6.33;2.00;;;;;;;22.60;65.03;99002.97;5134909;27;20231;-87
2022/05/15 00:38:37;;;;;;;3.87;2.07;;;;;;;22.63;65.71;99013.38;5134860;27;20190;-86
2022/05/15 00:41:03;;;;;;;3.30;1.53;;;;;;;22.68;65.48;99012.88;5135094;27;20179;-86
2022/05/15 00:43:49;;;;;;;3.93;1.83;;;;;;;22.48;67.13;99020.25;5134676;27;20194;-87
2022/05/15 00:46:14;;;;;;;3.37;1.90;;;;;;;22.32;68.23;99016.66;5135245;27;20230;-86
2022/05/15 00:48:40;;;;;;;5.17;2.17;;;;;;;22.27;69.15;99025.16;5116564;27;20636;-86
2022/05/15 00:51:19;;;;;;;3.57;1.53;;;;;;;22.08;69.86;99027.19;5133682;27;20171;-88
2022/05/15 00:53:48;;;;;;;7.47;2.00;;;;;;;22.23;69.80;99039.81;5134633;27;20535;-87
2022/05/15 00:56:15;;;;;;;4.00;1.70;;;;;;;22.23;69.73;99054.97;5134582;27;20618;-88
2022/05/15 00:58:48;;;;;;;2.47;1.50;;;;;;;22.15;70.13;99069.09;5134835;27;20171;-89
2022/05/15 01:01:15;;;;;;;4.23;1.97;;;;;;;21.99;70.81;99072.47;5134832;27;20216;-87
2022/05/15 01:03:42;;;;;;;3.60;1.63;;;;;;;22.10;70.51;99075.91;5134764;27;20223;-89
2022/05/15 01:06:08;;;;;;;4.27;1.53;;;;;;;21.97;72.30;99071.81;5116298;27;20663;-87
2022/05/15 01:08:33;;;;;;;4.17;2.00;;;;;;;21.79;73.98;99078.97;5134655;27;20175;-87
2022/05/15 01:11:05;;;;;;;7.37;1.77;;;;;;;21.64;75.78;99059.13;5116446;27;20185;-88
2022/05/15 01:13:34;;;;;;;5.20;2.20;;;;;;;21.51;76.61;99047.16;5134903;27;20183;-87
2022/05/15 01:16:00;;;;;;;3.27;1.80;;;;;;;21.29;78.55;99038.59;5134573;27;20245;-86
2022/05/15 01:18:28;;;;;;;4.50;1.63;;;;;;;20.98;80.21;99045.22;5134279;27;20179;-86
2022/05/15 01:20:57;;;;;;;3.93;1.83;;;;;;;20.75;82.28;99039.41;5135056;27;20274;-87
2022/05/15 01:23:22;;;;;;;3.37;1.80;;;;;;;20.87;82.01;99032.09;5134805;27;20171;-88
2022/05/15 01:25:48;;;;;;;4.80;1.60;;;;;;;20.67;82.75;99036.69;5116036;28;20211;-88
2022/05/15 01:28:18;;;;;;;2.90;1.87;;;;;;;20.59;83.91;99036.56;5134211;28;20182;-89
2022/05/15 01:30:47;;;;;;;3.13;1.30;;;;;;;20.41;85.07;99029.47;5134149;28;20273;-89
2022/05/15 01:33:13;;;;;;;4.17;2.00;;;;;;;20.63;84.44;99029.09;5134106;28;20179;-88
2022/05/15 01:35:39;;;;;;;2.37;1.33;;;;;;;20.69;83.33;99023.19;5134184;28;20241;-89
2022/05/15 01:38:05;;;;;;;4.90;1.90;;;;;;;20.71;82.65;99021.22;5134130;28;20255;-89
2022/05/15 01:40:31;;;;;;;2.77;1.53;;;;;;;20.64;82.87;99025.47;5115963;28;20277;-89
2022/05/15 01:42:59;;;;;;;3.63;1.63;;;;;;;20.70;82.58;99008.91;5115875;28;20613;-89
2022/05/15 01:45:24;;;;;;;5.87;1.80;;;;;;;20.67;82.41;99011.84;5115924;28;20561;-90
2022/05/15 01:47:50;;;;;;;2.97;1.20;;;;;;;20.76;81.99;99024.28;5116017;28;20648;-90
2022/05/15 01:50:16;;;;;;;3.20;1.50;;;;;;;20.75;82.46;99031.44;5134089;28;20175;-91
2022/05/15 01:52:42;;;;;;;3.93;1.60;;;;;;;20.68;82.42;99032.16;5133974;28;20182;-90
2022/05/15 01:55:08;;;;;;;4.80;2.03;;;;;;;20.66;83.39;99026.16;5133932;28;20175;-91
2022/05/15 01:57:33;;;;;;;3.40;1.87;;;;;;;20.55;84.64;99031.66;5133957;28;20175;-90
2022/05/15 01:59:59;;;;;;;5.27;2.00;;;;;;;20.64;83.94;99026.31;5134187;28;20175;-89
2022/05/15 02:02:24;;;;;;;2.47;1.60;;;;;;;20.56;84.26;99034.19;5116565;27;20593;-91
2022/05/15 02:04:50;;;;;;;4.20;2.33;;;;;;;20.41;86.55;99027.66;5138523;27;20240;-89
2022/05/15 02:07:15;;;;;;;3.80;1.57;;;;;;;20.46;86.74;99035.22;5137805;27;20285;-89
2022/05/15 02:09:41;;;;;;;4.20;2.27;;;;;;;20.46;86.89;99035.22;5119721;27;20167;-89
2022/05/15 02:12:07;;;;;;;3.33;2.03;;;;;;;20.55;86.74;99036.97;5120551;27;20187;-90
2022/05/15 02:14:33;;;;;;;4.27;2.40;;;;;;;20.62;86.22;99043.41;5119572;27;20216;-88
2022/05/15 02:16:58;;;;;;;3.50;2.07;;;;;;;20.84;85.04;99029.72;5119582;27;20175;-87
2022/05/15 02:19:24;;;;;;;4.70;2.33;;;;;;;20.89;84.35;99032.75;5137909;27;20190;-87
2022/05/15 02:21:49;;;;;;;3.00;1.70;;;;;;;20.90;83.81;99037.13;5119434;27;20622;-88
2022/05/15 02:24:15;;;;;;;5.07;2.77;;;;;;;21.02;83.45;99041.25;5137531;27;20235;-87
2022/05/15 02:26:41;;;;;;;8.67;3.60;;;;;;;21.07;82.53;99030.19;5119292;27;20234;-88
2022/05/15 02:29:07;;;;;;;4.33;2.17;;;;;;;20.84;83.12;99027.03;5119354;27;20175;-89
2022/05/15 02:31:33;;;;;;;7.40;2.60;;;;;;;20.94;83.53;99027.03;5137656;27;20173;-87
2022/05/15 02:34:00;;;;;;;5.23;2.37;;;;;;;21.03;82.56;99026.94;5137829;27;20175;-87
2022/05/15 02:36:26;;;;;;;5.47;2.43;;;;;;;20.96;82.59;99025.03;5137554;27;20163;-89
2022/05/15 02:38:52;;;;;;;5.07;2.40;;;;;;;20.87;83.57;99018.75;5119407;27;20743;-89
2022/05/15 02:41:17;;;;;;;4.50;2.63;;;;;;;20.77;83.73;99021.50;5119530;27;20179;-89
2022/05/15 02:43:43;;;;;;;4.77;2.67;;;;;;;20.80;84.10;99025.69;5137059;27;20269;-88
2022/05/15 02:46:08;;;;;;;4.97;2.60;;;;;;;20.95;83.30;99018.00;5136964;27;20213;-87
2022/05/15 02:51:18;;;;;;;5.30;2.73;;;;;;;21.19;81.29;99027.19;5137531;27;20296;-87
2022/05/15 02:53:45;;;;;;;4.20;2.30;;;;;;;21.28;81.00;99015.59;5119067;27;20672;-87
2022/05/15 02:56:22;;;;;;;4.63;2.70;;;;;;;21.23;80.24;99012.53;5118813;27;20175;-87
2022/05/15 02:58:48;;;;;;;4.47;2.47;;;;;;;21.25;80.16;99023.88;5119597;27;20186;-88
2022/05/15 03:01:15;;;;;;;5.57;2.37;;;;;;;21.32;79.82;99016.13;5118655;27;20179;-87
2022/05/15 03:03:40;;;;;;;5.77;2.70;;;;;;;21.33;79.08;99023.97;5118671;27;20649;-87
2022/05/15 03:06:07;;;;;;;4.27;2.20;;;;;;;21.25;78.89;99023.06;5119099;27;20198;-88
2022/05/15 03:08:34;;;;;;;5.13;2.93;;;;;;;21.09;79.71;99036.22;5118599;27;20175;-90
2022/05/15 03:10:59;;;;;;;3.37;2.20;;;;;;;21.17;79.50;99034.47;5118830;27;20247;-88
2022/05/15 03:13:25;;;;;;;6.60;2.67;;;;;;;21.38;78.13;99027.03;5118439;27;20182;-88
2022/05/15 03:15:50;;;;;;;5.10;2.83;;;;;;;21.48;77.61;99021.63;5135983;27;20171;-88
2022/05/15 03:18:16;;;;;;;6.57;3.07;;;;;;;21.48;77.35;99026.13;5118389;27;20270;-88
2022/05/15 03:20:42;;;;;;;3.43;2.10;;;;;;;21.32;77.49;99027.66;5136668;27;20171;-89
2022/05/15 03:23:07;;;;;;;6.13;3.00;;;;;;;21.05;78.72;99030.31;5118280;27;20623;-89
2022/05/15 03:25:33;;;;;;;5.30;2.43;;;;;;;21.12;78.76;99036.72;5118142;27;20202;-87
2022/05/15 03:27:59;;;;;;;3.43;2.23;;;;;;;21.10;78.47;99033.38;5136858;27;20167;-87
2022/05/15 03:30:24;;;;;;;3.03;2.10;;;;;;;21.14;78.27;99025.94;5136546;27;20239;-88
2022/05/15 03:32:50;;;;;;;3.63;2.17;;;;;;;21.14;77.83;99026.78;5137036;27;20183;-88
2022/05/15 03:35:15;;;;;;;4.87;1.93;;;;;;;21.25;77.06;99026.56;5118022;27;20543;-87
2022/05/15 03:37:42;;;;;;;6.77;2.23;;;;;;;21.27;76.68;99021.94;5118337;27;20179;-87
2022/05/15 03:40:11;;;;;;;3.73;2.20;;;;;;;21.36;76.24;99022.81;5117916;27;20270;-88
2022/05/15 03:42:36;;;;;;;6.13;2.53;;;;;;;21.45;75.62;99021.94;5136249;27;20172;-87
2022/05/15 03:45:03;;;;;;;3.37;1.67;;;;;;;21.48;75.21;99020.78;5117916;27;20182;-87
2022/05/15 03:47:28;;;;;;;3.03;1.70;;;;;;;21.48;74.73;99018.97;5117958;27;20207;-87
2022/05/15 03:49:54;;;;;;;4.63;1.83;;;;;;;21.48;75.05;99020.78;5136135;27;20539;-88
2022/05/15 03:52:21;;;;;;;3.63;1.90;;;;;;;21.48;74.93;99020.78;5118359;27;20186;-88
2022/05/15 03:54:47;;;;;;;3.40;1.70;;;;;;;21.51;74.77;99017.81;5137811;27;20269;-88
2022/05/15 03:57:13;;;;;;;3.37;1.73;;;;;;;21.59;74.59;99017.91;5150678;27;20257;-88
2022/05/15 03:59:40;;;;;;;3.60;2.17;;;;;;;21.55;73.90;99017.38;5138991;27;20269;-88
2022/05/15 04:02:08;;;;;;;6.50;2.10;;;;;;;21.54;74.38;99020.19;5156277;27;20179;-88
2022/05/15 04:04:34;;;;;;;3.83;1.93;;;;;;;21.54;74.32;99030.88;5137981;27;20639;-89
2022/05/15 04:07:00;;;;;;;3.37;1.60;;;;;;;21.41;74.86;99018.72;5137831;27;20288;-89
2022/05/15 04:09:27;;;;;;;3.63;1.50;;;;;;;21.27;76.02;99035.25;5131825;27;20285;-89
2022/05/15 04:11:52;;;;;;;3.40;1.60;;;;;;;21.22;76.83;99026.88;5124462;27;20183;-90
2022/05/15 04:14:18;;;;;;;3.60;1.73;;;;;;;21.13;76.95;99037.59;5135401;27;20181;-91
2022/05/15 04:16:43;;;;;;;3.03;2.00;;;;;;;21.23;76.89;99041.03;5135215;27;20174;-89
2022/05/15 04:19:09;;;;;;;3.47;1.70;;;;;;;21.33;76.57;99026.63;5135150;27;20190;-89
2022/05/15 04:21:40;;;;;;;3.30;1.60;;;;;;;21.49;75.89;99031.28;5117019;27;20186;-88
2022/05/15 04:24:17;;;;;;;5.03;2.27;;;;;;;21.60;75.95;99031.06;5138576;27;20178;-89
2022/05/15 04:26:44;;;;;;;2.20;1.40;;;;;;;21.62;75.94;99038.94;5156176;27;20193;-89
2022/05/15 04:29:10;;;;;;;4.37;1.83;;;;;;;21.77;75.40;99042.75;5137836;27;20641;-89
2022/05/15 04:31:36;;;;;;;3.00;1.47;;;;;;;21.67;76.16;99037.47;5155795;27;20181;-89
2022/05/15 04:34:05;;;;;;;2.67;1.47;;;;;;;21.53;75.84;99027.34;5118774;27;20568;-89
2022/05/15 04:36:32;;;;;;;4.63;2.10;;;;;;;21.77;75.59;99037.41;5134965;27;20163;-89
2022/05/15 04:38:57;;;;;;;2.60;1.07;;;;;;;21.94;74.36;99036.56;5134909;27;20183;-90
2022/05/15 04:41:23;;;;;;;3.50;1.90;;;;;;;21.96;74.96;99031.91;5116732;27;20502;-90
2022/05/15 04:43:49;;;;;;;2.37;1.30;;;;;;;21.89;75.31;99037.03;5134760;27;20227;-89
2022/05/15 04:46:15;;;;;;;3.03;1.40;;;;;;;22.02;74.93;99041.97;5134647;27;20187;-91
2022/05/15 04:48:41;;;;;;;3.40;1.40;;;;;;;22.17;74.34;99035.06;5134817;27;20190;-91
2022/05/15 04:51:07;;;;;;;4.07;1.87;;;;;;;22.18;74.81;99039.44;5134739;27;20170;-90
2022/05/15 04:53:32;;;;;;;2.70;1.50;;;;;;;22.46;74.00;99037.44;5135007;27;20258;-90
2022/05/15 04:56:00;;;;;;;7.53;1.63;;;;;;;22.66;73.47;99035.41;5134745;27;20178;-90
2022/05/15 04:58:25;;;;;;;3.00;1.80;;;;;;;22.86;73.16;99036.84;5134631;27;20175;-90
2022/05/15 05:00:51;;;;;;;2.40;1.50;;;;;;;23.20;71.85;99035.81;5134642;27;20185;-91
2022/05/15 05:03:17;;;;;;;3.50;1.80;;;;;;;23.71;69.19;99034.78;5143261;27;20182;-92
2022/05/15 05:05:42;;;;;;;3.00;1.50;;;;;;;24.11;66.96;99033.13;5135007;27;20194;-91
2022/05/15 05:08:10;;;;;;;5.10;1.63;;;;;;;24.25;67.23;99038.63;5138950;27;20193;-91
2022/05/15 05:10:36;;;;;;;6.93;1.50;;;;;;;24.43;66.25;99035.75;5137306;27;20174;-91
2022/05/15 05:13:02;;;;;;;11.80;1.67;;;;;;;24.62;65.66;99040.75;5155274;27;20166;-92
2022/05/15 05:15:28;;;;;;;2.90;1.37;;;;;;;24.86;65.04;99039.88;5126881;27;20186;-90
2022/05/15 05:17:54;;;;;;;2.97;1.73;;;;;;;25.19;63.41;99048.59;5134411;27;20194;-91
2022/05/15 05:20:19;;;;;;;2.30;1.53;;;;;;;25.68;61.30;99050.03;5136004;27;20182;-91
2022/05/15 05:22:45;;;;;;;3.57;1.47;;;;;;;26.01;59.35;99040.69;5134990;27;20197;-93
2022/05/15 05:25:10;;;;;;;3.80;1.60;;;;;;;26.18;57.54;99047.63;5116675;28;20243;-91
2022/05/15 05:27:38;;;;;;;5.30;1.40;;;;;;;26.27;57.25;99055.59;5116222;28;20178;-91
2022/05/15 05:30:09;;;;;;;2.93;1.83;;;;;;;26.47;57.29;99046.00;5134467;28;20667;-91
2022/05/15 05:32:37;;;;;;;2.20;1.17;;;;;;;26.28;54.47;99057.28;5116404;28;20186;-93
2022/05/15 05:35:04;;;;;;;4.70;1.43;;;;;;;26.08;52.48;99055.06;5134423;28;20177;-92
2022/05/15 05:37:30;;;;;;;4.90;1.87;;;;;;;25.84;52.11;99059.81;5117231;27;20252;-90
2022/05/15 05:39:56;;;;;;;2.93;1.50;;;;;;;25.66;52.16;99052.03;5123794;27;20182;-92
2022/05/15 05:42:21;;;;;;;2.70;1.57;;;;;;;25.66;51.84;99057.41;5132345;27;20182;-91
2022/05/15 05:44:47;;;;;;;3.80;2.10;;;;;;;25.73;53.05;99058.38;5124886;27;20186;-91
2022/05/15 05:47:12;;;;;;;4.60;2.03;;;;;;;25.60;53.96;99055.44;5139836;27;20315;-91
2022/05/15 05:49:38;;;;;;;3.00;1.60;;;;;;;25.61;55.83;99059.78;5140343;27;20178;-90
2022/05/15 05:52:04;;;;;;;2.93;1.57;;;;;;;25.55;55.44;99060.53;5130276;27;20186;-91
2022/05/15 05:54:29;;;;;;;1.80;1.30;;;;;;;25.48;55.56;99063.06;5130101;27;20194;-90
2022/05/15 05:56:55;;;;;;;3.17;1.63;;;;;;;25.05;55.44;99072.44;5143491;27;20522;-92
2022/05/15 05:59:24;;;;;;;3.83;2.00;;;;;;;24.78;56.79;99066.66;5150591;27;20179;-92
2022/05/15 06:02:02;;;;;;;4.53;1.53;;;;;;;24.72;56.79;99068.19;5159227;27;20201;-91
2022/05/15 06:04:41;;;;;;;4.90;1.70;;;;;;;24.62;57.89;99067.53;5141736;27;20196;-90
2022/05/15 06:07:09;;;;;;;4.53;2.10;;;;;;;24.68;58.78;99069.56;5130156;27;20563;-93
2022/05/15 06:09:40;;;;;;;6.27;3.00;;;;;;;24.85;56.86;99063.16;5141065;27;20182;-90
2022/05/15 06:12:06;;;;;;;9.53;4.60;;;;;;;24.87;55.93;99061.13;5137118;27;20269;-90
2022/05/15 06:14:34;;;;;;;4.00;2.30;;;;;;;25.08;56.79;99062.41;5139549;27;20674;-89
2022/05/15 06:17:00;;;;;;;9.60;3.60;;;;;;;25.28;55.20;99053.75;5139549;27;20537;-90
2022/05/15 06:19:25;;;;;;;7.33;4.60;;;;;;;25.58;56.75;99057.44;5157261;27;20171;-90
2022/05/15 06:21:51;;;;;;;3.43;1.80;;;;;;;25.79;54.81;99051.44;5157531;27;20170;-89
2022/05/15 06:24:16;;;;;;;5.73;2.20;;;;;;;26.04;54.96;99048.41;5157776;27;20567;-89
2022/05/15 06:26:42;;;;;;;6.10;3.20;;;;;;;26.26;56.08;99052.06;5157647;27;20717;-89
2022/05/15 06:29:08;;;;;;;4.40;2.33;;;;;;;26.58;51.53;99059.00;5152289;27;20207;-89
2022/05/15 06:31:35;;;;;;;7.22;3.28;;;;;;;26.81;49.79;99054.38;5138204;27;20643;-91
2022/05/15 06:34:01;;;;;;;6.80;3.10;;;;;;;27.11;52.15;99056.06;5137886;27;20171;-90
2022/05/15 06:36:28;;;;;;;6.22;2.28;;;;;;;27.33;48.34;99048.88;5119566;27;20199;-88
2022/05/15 06:38:56;;;;;;;5.70;2.90;;;;;;;27.69;45.94;99055.13;5131517;27;20175;-89
2022/05/15 06:41:24;;;;;;;5.72;2.67;;;;;;;27.71;45.51;99046.81;5148723;27;20272;-89
2022/05/15 06:43:51;;;;;;;5.50;2.35;;;;;;;27.92;46.27;99057.63;5128006;27;20288;-89
2022/05/15 06:46:17;;;;;;;6.65;1.73;;;;;;;27.84;44.65;99055.03;5143435;27;20215;-89
2022/05/15 06:48:44;;;;;;;8.40;2.80;;;;;;;27.75;45.69;99050.81;5138378;27;20266;-88
2022/05/15 06:51:14;;;;;;;6.25;2.47;;;;;;;27.80;43.88;99061.84;5137553;27;20175;-87
2022/05/15 06:53:41;;;;;;;5.28;2.03;;;;;;;27.89;45.32;99058.00;5137479;27;20641;-88
2022/05/15 06:58:53;;;;;;;4.90;2.38;;;;;;;27.93;43.82;99062.81;5142726;27;20214;-86
2022/05/15 07:01:19;;;;;;;3.35;1.75;;;;;;;27.80;44.78;99056.47;5149010;27;20182;-87
2022/05/15 07:03:45;;;;;;;3.30;1.90;;;;;;;27.97;43.69;99063.25;5157719;27;20182;-88
2022/05/15 07:06:12;;;;;;;2.42;1.40;;;;;;;28.12;43.65;99061.34;5155686;27;20205;-87
2022/05/15 07:08:39;;;;;;;2.80;1.73;;;;;;;28.16;41.35;99068.03;5157358;27;20182;-88
2022/05/15 07:11:05;;;;;;;4.38;2.58;;;;;;;28.15;41.45;99065.50;5157617;27;20179;-87
2022/05/15 07:13:32;;;;;;;5.50;2.17;;;;;;;28.29;42.98;99070.84;5157302;27;20181;-87
2022/05/15 07:15:59;;;;;;;5.38;2.35;;;;;;;28.67;44.10;99065.94;5139572;27;20230;-88
2022/05/15 07:18:27;;;;;;;4.20;1.58;;;;;;;28.64;42.83;99056.38;5139012;27;20283;-88
2022/05/15 07:20:53;;;;;;;3.38;1.60;;;;;;;28.69;42.36;99066.63;5157804;27;20175;-88
2022/05/15 07:23:20;;;;;;;3.85;1.77;;;;;;;28.78;42.38;99062.72;5138919;27;20178;-87
2022/05/15 07:25:48;;;;;;;3.83;1.38;;;;;;;28.67;39.17;99049.75;5155881;27;20637;-87
2022/05/15 07:28:15;;;;;;;3.63;1.30;;;;;;;28.71;39.22;99055.59;5138428;27;20336;-86
2022/05/15 07:30:42;;;;;;;3.05;1.40;;;;;;;28.62;37.97;99063.84;5118442;27;20175;-88
2022/05/15 07:33:09;;;;;;;3.35;1.00;;;;;;;28.92;40.46;99060.91;5136818;27;20198;-86
2022/05/15 07:35:36;;;;;;;2.28;1.42;;;;;;;28.76;38.51;99062.09;5136187;27;20175;-87
2022/05/15 07:38:03;;;;;;;3.83;1.45;;;;;;;28.53;37.93;99065.03;5136645;27;20171;-86
2022/05/15 07:40:31;;;;;;;2.42;0.98;;;;;;;28.44;38.18;99060.78;5157345;27;20178;-87
2022/05/15 07:42:58;;;;;;;3.75;1.00;;;;;;;28.40;37.04;99053.28;5148268;27;20229;-89
2022/05/15 07:45:25;;;;;;;2.80;0.80;;;;;;;28.39;36.20;99060.53;5140208;27;20210;-87
2022/05/15 07:47:50;;;;;;;2.03;0.85;;;;;;;28.67;37.36;99059.75;5136182;27;20183;-88
2022/05/15 07:50:17;;;;;;;2.58;0.93;;;;;;;28.57;35.84;99060.88;5117750;27;20239;-88
2022/05/15 07:52:43;;;;;;;1.55;1.02;;;;;;;28.36;35.21;99057.41;5135837;27;20182;-90
2022/05/15 07:55:11;;;;;;;3.58;1.08;;;;;;;28.29;36.29;99070.00;5143767;27;20193;-88
2022/05/15 07:57:38;;;;;;;2.72;1.33;;;;;;;28.31;36.88;99067.94;5138292;27;20270;-89
2022/05/15 08:00:09;;;;;;;2.60;0.88;;;;;;;28.36;36.45;99054.69;5137596;27;20170;-88
2022/05/15 08:02:36;;;;;;;2.58;1.50;;;;;;;28.45;35.77;99050.84;5148328;27;20186;-87
2022/05/15 08:08:02;;;;;;;2.13;1.00;;;;;;;28.48;35.73;99045.06;5144660;27;20197;-88
2022/05/15 08:10:34;;;;;;;6.90;1.40;;;;;;;28.66;34.76;99053.50;5141665;27;20633;-87
2022/05/15 08:13:02;;;;;;;1.92;1.10;;;;;;;28.85;35.81;99054.66;5135952;27;20163;-87
2022/05/15 08:15:30;;;;;;;1.65;1.05;;;;;;;28.85;35.83;99060.06;5135633;27;20617;-87
2022/05/15 08:23:33;;;;;;;2.40;1.15;;;;;;;28.75;35.50;99060.41;5137710;27;20170;-88
2022/05/15 08:23:34;;;;;;;4.13;1.52;;;;;;;28.72;35.04;99057.28;5135567;27;20525;-89
2022/05/15 08:26:01;;;;;;;1.80;0.93;;;;;;;28.96;35.02;99060.31;5134840;27;20195;-91
2022/05/15 08:28:28;;;;;;;5.53;1.35;;;;;;;29.02;35.44;99064.94;5149870;27;20206;-90
2022/05/15 08:30:55;;;;;;;2.10;0.82;;;;;;;29.05;35.42;99064.53;5156317;27;20237;-88
2022/05/15 08:33:21;;;;;;;2.63;1.10;;;;;;;29.04;34.83;99073.66;5155300;27;20632;-88
2022/05/15 08:35:48;;;;;;;3.78;1.10;;;;;;;29.07;34.28;99069.72;5121135;27;20757;-89
2022/05/15 08:38:15;;;;;;;2.67;1.05;;;;;;;29.23;34.89;99058.63;5155934;27;20230;-90
2022/05/15 08:41:00;;;;;;;3.63;1.35;;;;;;;29.68;34.58;99066.03;5146708;27;20183;-92
2022/05/15 08:43:46;;;;;;;14.85;1.73;;;;;;;29.47;33.51;99054.56;5134887;27;20221;-89
2022/05/15 08:46:29;;;;;;;1.75;0.95;;;;;;;29.42;34.45;99068.66;5134721;27;20236;-90
2022/05/15 08:49:08;;;;;;;3.17;0.95;;;;;;;29.42;33.49;99063.28;5121880;27;20667;-90
2022/05/15 08:51:35;;;;;;;4.85;1.10;;;;;;;29.50;34.48;99065.78;5130619;27;20261;-88
2022/05/15 08:54:06;;;;;;;5.88;1.65;;;;;;;29.94;36.25;99069.84;5135284;27;20617;-90
2022/05/15 08:56:47;;;;;;;2.50;0.80;;;;;;;30.09;33.53;99065.09;5135065;27;20166;-90
2022/05/15 08:59:27;;;;;;;3.15;1.20;;;;;;;30.18;33.76;99058.44;5135083;27;20284;-90
2022/05/15 09:01:56;;;;;;;9.73;3.67;;;;;;;30.21;33.44;99060.75;5134879;27;20178;-88
2022/05/15 09:04:24;;;;;;;4.43;1.85;;;;;;;30.30;33.16;99060.31;5135403;27;20186;-88
2022/05/15 09:07:09;;;;;;;1.77;1.02;;;;;;;29.91;33.00;99064.88;5135773;27;20191;-89
2022/05/15 09:10:23;;;;;;;4.10;1.20;;;;;;;30.07;32.88;99053.66;5117788;27;20515;-90
2022/05/15 09:13:08;;;;;;;1.67;0.70;;;;;;;30.03;32.27;99055.94;5090955;28;20188;-87
2022/05/15 09:15:38;;;;;;;1.40;0.90;;;;;;;30.27;32.80;99060.72;5131691;27;20183;-89
2022/05/15 09:18:05;;;;;;;2.03;0.90;;;;;;;30.65;32.60;99063.66;5151178;27;20170;-90
2022/05/15 09:20:40;;;;;;;2.47;1.13;;;;;;;30.90;33.50;99053.81;5120081;27;20197;-88
2022/05/15 09:23:16;;;;;;;3.72;1.15;;;;;;;31.18;33.80;99053.56;5136334;27;20178;-89
2022/05/15 09:26:02;;;;;;;3.55;1.00;;;;;;;31.11;32.94;99052.72;5134651;27;20187;-89
2022/05/15 09:28:29;;;;;;;2.33;1.30;;;;;;;31.31;31.87;99066.22;5146231;27;20175;-88
2022/05/15 09:31:04;;;;;;;2.28;1.02;;;;;;;31.31;30.98;99063.50;5149880;27;20213;-87
2022/05/15 09:33:55;;;;;;;3.30;1.15;;;;;;;31.41;31.33;99047.59;5143410;27;20182;-88
2022/05/15 09:36:50;;;;;;;4.03;1.25;;;;;;;31.67;31.27;99052.91;5147639;27;20172;-89
2022/05/15 09:39:43;;;;;;;2.13;0.90;;;;;;;31.43;31.08;99045.50;5109016;28;20274;-88
2022/05/15 09:45:16;;;;;;;2.03;1.10;;;;;;;31.50;31.95;99054.47;5123921;27;20323;-90
2022/05/15 09:48:15;;;;;;;2.45;1.58;;;;;;;31.52;31.10;99041.53;5126560;28;20194;-89
2022/05/15 09:50:47;;;;;;;2.20;1.05;;;;;;;31.88;33.03;99038.19;5098024;28;20186;-89
2022/05/15 09:53:36;;;;;;;4.15;1.45;;;;;;;32.25;30.54;99040.00;5122257;28;20198;-89
2022/05/15 09:56:06;;;;;;;3.03;0.80;;;;;;;32.26;31.68;99038.94;5112619;28;20156;-88
2022/05/15 09:58:42;;;;;;;3.40;0.80;;;;;;;31.85;31.54;99028.59;5094681;28;20299;-87
2022/05/15 10:01:24;;;;;;;2.42;1.23;;;;;;;31.74;30.98;99031.19;5112271;28;20184;-89
2022/05/15 10:03:56;;;;;;;3.15;1.50;;;;;;;31.49;31.75;99026.56;5112599;28;20178;-92
2022/05/15 10:06:28;;;;;;;1.90;1.02;;;;;;;31.71;31.88;99034.34;5113646;28;20203;-91
2022/05/15 10:09:21;;;;;;;3.83;0.90;;;;;;;31.79;32.46;99034.09;5114214;28;20160;-87
2022/05/15 10:11:49;;;;;;;2.50;0.90;;;;;;;31.78;31.49;99022.41;5111599;28;20160;-88
2022/05/15 10:14:26;;;;;;;3.58;1.58;;;;;;;31.83;31.33;99022.59;5093699;28;20187;-89
2022/05/15 10:16:56;;;;;;;4.97;1.23;;;;;;;32.02;29.46;99024.31;5111289;28;20168;-89
2022/05/15 10:19:34;;;;;;;5.03;1.10;;;;;;;32.08;31.54;99018.03;5111324;28;20171;-91
2022/05/15 10:22:22;;;;;;;2.17;0.90;;;;;;;32.31;29.82;99020.16;5111384;28;20164;-91
2022/05/15 10:24:50;;;;;;;1.95;0.70;;;;;;;32.18;28.30;99015.63;5114559;28;20194;-88
2022/05/15 10:27:27;;;;;;;1.63;0.90;;;;;;;32.47;29.11;99010.59;5117147;28;20241;-89
2022/05/15 10:30:02;;;;;;;3.38;0.90;;;;;;;32.70;30.10;99017.06;5117847;28;20164;-90
2022/05/15 10:32:41;;;;;;;8.45;1.77;;;;;;;32.90;30.04;99016.00;5109348;27;20178;-89
2022/05/15 10:35:11;;;;;;;1.98;0.80;;;;;;;33.21;30.56;99000.38;5116914;27;20183;-89
2022/05/15 10:38:12;;;;;;;2.92;1.55;;;;;;;33.17;30.35;99009.22;5118397;27;20217;-91
2022/05/15 10:40:47;;;;;;;2.05;0.88;;;;;;;33.31;30.86;98997.94;5103136;27;20574;-90
2022/05/15 10:43:53;;;;;;;2.65;1.17;;;;;;;33.44;27.08;99007.00;5122717;27;20217;-89
2022/05/15 10:46:33;;;;;;;3.13;0.98;;;;;;;33.35;28.48;99004.59;5158427;27;20632;-89
2022/05/15 10:49:13;;;;;;;2.05;0.90;;;;;;;33.51;29.11;98994.13;5140156;27;20600;-89
2022/05/15 10:52:09;;;;;;;5.63;1.05;;;;;;;33.61;27.44;99005.31;5140348;27;20173;-88
2022/05/15 10:58:02;;;;;;;3.00;1.00;;;;;;;33.89;26.60;98994.63;5158302;27;20627;-91
2022/05/15 11:00:57;;;;;;;1.35;0.60;;;;;;;33.74;25.26;98986.91;5140251;27;20185;-88
2022/05/15 11:04:07;;;;;;;5.00;0.98;;;;;;;33.46;25.71;98996.72;5120764;27;20242;-89
2022/05/15 11:06:50;;;;;;;1.50;0.70;;;;;;;33.69;24.81;98994.94;5139804;27;20763;-89
2022/05/15 11:09:43;;;;;;;1.85;0.73;;;;;;;33.94;25.40;98989.28;5139466;27;20597;-89
2022/05/15 11:12:08;;;;;;;1.80;0.68;;;;;;;33.90;24.45;98988.97;5136214;27;20518;-88
2022/05/15 11:15:19;;;;;;;3.08;0.82;;;;;;;34.13;25.23;98984.63;5157037;27;20625;-90
2022/05/15 11:18:03;;;;;;;2.10;0.70;;;;;;;33.95;23.57;98994.53;5133664;27;20189;-88
2022/05/15 11:20:36;;;;;;;3.75;0.80;;;;;;;33.99;24.93;98990.25;5138761;27;20258;-90
2022/05/15 11:23:12;;;;;;;1.98;0.70;;;;;;;34.05;22.98;98980.31;5157205;27;20162;-89
2022/05/15 11:25:46;;;;;;;1.42;0.63;;;;;;;34.23;24.40;98974.81;5157346;27;20162;-89
2022/05/15 11:28:21;;;;;;;5.00;0.85;;;;;;;34.30;24.18;98975.53;5157543;27;20182;-89
2022/05/15 11:30:48;;;;;;;2.22;0.80;;;;;;;34.38;22.08;98964.28;5157306;27;20172;-88
2022/05/15 11:33:17;;;;;;;1.58;0.60;;;;;;;34.51;23.07;98969.47;5138989;27;20216;-89
2022/05/15 11:36:08;;;;;;;0.93;0.40;;;;;;;34.94;24.76;98966.34;5155872;27;20253;-91
2022/05/15 11:38:55;;;;;;;3.17;0.73;;;;;;;35.06;23.87;98955.47;5138684;27;20171;-88
2022/05/15 11:41:34;;;;;;;2.05;0.73;;;;;;;34.92;26.03;98959.47;5156828;27;20585;-88
2022/05/15 11:44:08;;;;;;;3.90;0.82;;;;;;;35.13;23.95;98953.41;5138366;27;20201;-89
2022/05/15 11:46:46;;;;;;;1.63;0.60;;;;;;;35.12;24.36;98957.19;5156957;27;20186;-89
2022/05/15 11:49:17;;;;;;;2.67;0.63;;;;;;;35.10;23.60;98953.88;5156557;27;20529;-89
2022/05/15 11:51:55;;;;;;;1.25;0.70;;;;;;;35.05;23.07;98948.34;5138962;27;20166;-89
2022/05/15 11:54:30;;;;;;;1.67;0.93;;;;;;;35.44;23.68;98943.88;5156822;27;20173;-89
2022/05/15 11:56:57;;;;;;;1.77;0.65;;;;;;;35.37;23.06;98944.06;5157017;27;20249;-90
2022/05/15 11:59:29;;;;;;;3.95;0.45;;;;;;;35.20;24.16;98937.72;5156434;27;20178;-89
2022/05/15 12:01:58;;;;;;;4.78;0.80;;;;;;;35.67;23.78;98933.72;5156594;27;20174;-89
2022/05/15 12:04:36;;;;;;;1.38;0.80;;;;;;;35.61;22.77;98934.72;5156303;27;20185;-89
2022/05/15 12:07:01;;;;;;;1.48;0.57;;;;;;;35.57;21.38;98939.00;5156475;27;20753;-89